sensor_id;sensor_type;location;lat;lon;timestamp;pressure;altitude;pressure_sealevel;temperature;humidity
31717;BME280;18301;51.076;17.046;2023-04-28T00:01:43;100636.63;;;8.28;60.59
31717;BME280;18301;51.076;17.046;2023-04-28T00:06:44;100631.06;;;8.31;60.45
31717;BME280;18301;51.076;17.046;2023-04-28T00:11:46;100622.44;;;8.26;60.69
31717;BME280;18301;51.076;17.046;2023-04-28T00:16:48;100618.97;;;8.24;60.74
31717;BME280;18301;51.076;17.046;2023-04-28T00:21:49;100623.50;;;8.23;60.78
31717;BME280;18301;51.076;17.046;2023-04-28T00:26:51;100613.03;;;8.33;60.76
31717;BME280;18301;51.076;17.046;2023-04-28T00:31:52;100607.47;;;8.36;60.81
31717;BME280;18301;51.076;17.046;2023-04-28T00:36:54;100607.13;;;8.42;60.74
31717;BME280;18301;51.076;17.046;2023-04-28T00:41:56;100608.00;;;8.43;61.03
31717;BME280;18301;51.076;17.046;2023-04-28T00:46:58;100606.69;;;8.34;61.76
31717;BME280;18301;51.076;17.046;2023-04-28T00:52:03;100602.56;;;8.28;61.85
31717;BME280;18301;51.076;17.046;2023-04-28T00:57:06;100603.22;;;8.18;62.15
31717;BME280;18301;51.076;17.046;2023-04-28T01:02:08;100590.38;;;8.23;62.34
31717;BME280;18301;51.076;17.046;2023-04-28T01:07:09;100596.31;;;8.14;62.50
31717;BME280;18301;51.076;17.046;2023-04-28T01:12:12;100590.38;;;8.23;62.59
31717;BME280;18301;51.076;17.046;2023-04-28T01:17:13;100579.25;;;8.29;62.52
31717;BME280;18301;51.076;17.046;2023-04-28T01:22:15;100579.63;;;8.23;62.71
31717;BME280;18301;51.076;17.046;2023-04-28T01:27:17;100583.06;;;8.25;62.79
31717;BME280;18301;51.076;17.046;2023-04-28T01:32:18;100571.25;;;8.27;62.92
31717;BME280;18301;51.076;17.046;2023-04-28T01:37:19;100572.50;;;8.22;62.95
31717;BME280;18301;51.076;17.046;2023-04-28T01:42:21;100564.78;;;8.16;63.22
31717;BME280;18301;51.076;17.046;2023-04-28T01:47:22;100567.38;;;8.03;64.13
31717;BME280;18301;51.076;17.046;2023-04-28T01:52:24;100573.00;;;7.84;64.12
31717;BME280;18301;51.076;17.046;2023-04-28T01:57:27;100576.28;;;7.89;63.99
31717;BME280;18301;51.076;17.046;2023-04-28T02:02:29;100571.41;;;7.96;64.21
31717;BME280;18301;51.076;17.046;2023-04-28T02:07:31;100570.16;;;8.01;64.01
31717;BME280;18301;51.076;17.046;2023-04-28T02:12:32;100558.25;;;8.05;64.03
31717;BME280;18301;51.076;17.046;2023-04-28T02:17:34;100551.91;;;8.06;64.21
31717;BME280;18301;51.076;17.046;2023-04-28T02:22:35;100554.72;;;8.05;64.31
31717;BME280;18301;51.076;17.046;2023-04-28T02:27:37;100557.66;;;8.00;64.55
31717;BME280;18301;51.076;17.046;2023-04-28T02:32:38;100557.47;;;7.89;64.82
31717;BME280;18301;51.076;17.046;2023-04-28T02:37:40;100553.81;;;7.90;64.83
31717;BME280;18301;51.076;17.046;2023-04-28T02:42:41;100555.53;;;7.91;64.76
31717;BME280;18301;51.076;17.046;2023-04-28T02:47:43;100548.38;;;7.92;64.56
31717;BME280;18301;51.076;17.046;2023-04-28T02:52:44;100539.03;;;7.83;64.56
31717;BME280;18301;51.076;17.046;2023-04-28T02:57:49;100546.31;;;7.81;64.75
31717;BME280;18301;51.076;17.046;2023-04-28T03:02:50;100547.09;;;7.83;64.86
31717;BME280;18301;51.076;17.046;2023-04-28T03:07:52;100540.94;;;7.81;64.69
31717;BME280;18301;51.076;17.046;2023-04-28T03:12:54;100544.59;;;7.80;65.11
31717;BME280;18301;51.076;17.046;2023-04-28T03:17:55;100542.88;;;7.79;65.41
31717;BME280;18301;51.076;17.046;2023-04-28T03:22:57;100543.25;;;7.73;65.41
31717;BME280;18301;51.076;17.046;2023-04-28T03:27:58;100549.16;;;7.64;65.56
31717;BME280;18301;51.076;17.046;2023-04-28T03:33:00;100541.75;;;7.37;66.40
31717;BME280;18301;51.076;17.046;2023-04-28T03:38:01;100542.72;;;7.36;66.56
31717;BME280;18301;51.076;17.046;2023-04-28T03:43:03;100545.22;;;7.39;66.44
31717;BME280;18301;51.076;17.046;2023-04-28T03:48:05;100541.56;;;7.40;66.27
31717;BME280;18301;51.076;17.046;2023-04-28T03:53:07;100528.75;;;7.45;66.56
31717;BME280;18301;51.076;17.046;2023-04-28T03:58:09;100532.91;;;7.35;66.92
31717;BME280;18301;51.076;17.046;2023-04-28T04:03:10;100533.78;;;7.51;66.76
31717;BME280;18301;51.076;17.046;2023-04-28T04:08:12;100539.31;;;7.48;66.78
31717;BME280;18301;51.076;17.046;2023-04-28T04:13:14;100534.13;;;7.45;67.64
31717;BME280;18301;51.076;17.046;2023-04-28T04:18:15;100534.66;;;7.36;67.69
31717;BME280;18301;51.076;17.046;2023-04-28T04:23:17;100538.47;;;7.32;68.05
31717;BME280;18301;51.076;17.046;2023-04-28T04:28:18;100534.50;;;7.39;67.99
31717;BME280;18301;51.076;17.046;2023-04-28T04:33:20;100532.19;;;7.47;67.61
31717;BME280;18301;51.076;17.046;2023-04-28T04:38:21;100533.59;;;7.54;67.15
31717;BME280;18301;51.076;17.046;2023-04-28T04:43:22;100532.34;;;7.60;67.22
31717;BME280;18301;51.076;17.046;2023-04-28T04:48:24;100536.47;;;7.66;66.86
31717;BME280;18301;51.076;17.046;2023-04-28T04:53:25;100525.41;;;7.56;67.06
31717;BME280;18301;51.076;17.046;2023-04-28T04:58:27;100530.13;;;7.52;68.08
31717;BME280;18301;51.076;17.046;2023-04-28T05:03:29;100522.31;;;7.64;67.42
31717;BME280;18301;51.076;17.046;2023-04-28T05:08:31;100527.13;;;7.73;67.27
31717;BME280;18301;51.076;17.046;2023-04-28T05:13:32;100527.31;;;7.70;66.89
31717;BME280;18301;51.076;17.046;2023-04-28T05:18:33;100521.38;;;7.79;66.79
31717;BME280;18301;51.076;17.046;2023-04-28T05:23:35;100513.69;;;7.87;66.34
31717;BME280;18301;51.076;17.046;2023-04-28T05:28:38;100514.09;;;8.10;65.95
31717;BME280;18301;51.076;17.046;2023-04-28T05:33:40;100519.88;;;8.18;66.04
31717;BME280;18301;51.076;17.046;2023-04-28T05:38:42;100506.66;;;8.43;65.85
31717;BME280;18301;51.076;17.046;2023-04-28T05:43:44;100505.53;;;8.47;65.30
31717;BME280;18301;51.076;17.046;2023-04-28T05:48:46;100505.00;;;8.55;65.68
31717;BME280;18301;51.076;17.046;2023-04-28T05:53:48;100505.66;;;8.73;65.69
31717;BME280;18301;51.076;17.046;2023-04-28T05:58:49;100499.22;;;8.90;65.18
31717;BME280;18301;51.076;17.046;2023-04-28T06:03:51;100498.84;;;9.09;65.30
31717;BME280;18301;51.076;17.046;2023-04-28T06:08:54;100503.75;;;9.29;65.00
31717;BME280;18301;51.076;17.046;2023-04-28T06:13:56;100500.75;;;9.61;64.45
31717;BME280;18301;51.076;17.046;2023-04-28T06:18:57;100495.69;;;9.69;64.35
31717;BME280;18301;51.076;17.046;2023-04-28T06:23:58;100480.28;;;9.97;63.82
31717;BME280;18301;51.076;17.046;2023-04-28T06:29:01;100471.69;;;10.04;63.54
31717;BME280;18301;51.076;17.046;2023-04-28T06:34:02;100479.03;;;10.41;62.07
31717;BME280;18301;51.076;17.046;2023-04-28T06:39:04;100475.97;;;10.45;61.31
31717;BME280;18301;51.076;17.046;2023-04-28T06:44:06;100478.09;;;10.66;61.57
31717;BME280;18301;51.076;17.046;2023-04-28T06:49:07;100473.47;;;10.92;60.90
31717;BME280;18301;51.076;17.046;2023-04-28T06:54:08;100468.84;;;11.18;60.01
31717;BME280;18301;51.076;17.046;2023-04-28T06:59:10;100464.31;;;11.18;60.46
31717;BME280;18301;51.076;17.046;2023-04-28T07:04:11;100465.09;;;11.32;60.47
31717;BME280;18301;51.076;17.046;2023-04-28T07:09:13;100465.63;;;11.48;59.84
31717;BME280;18301;51.076;17.046;2023-04-28T07:14:16;100458.81;;;11.66;59.46
31717;BME280;18301;51.076;17.046;2023-04-28T07:19:18;100441.63;;;11.79;58.96
31717;BME280;18301;51.076;17.046;2023-04-28T07:24:19;100439.69;;;11.81;57.63
31717;BME280;18301;51.076;17.046;2023-04-28T07:29:20;100434.06;;;12.06;56.85
31717;BME280;18301;51.076;17.046;2023-04-28T07:34:22;100442.94;;;12.31;55.20
31717;BME280;18301;51.076;17.046;2023-04-28T07:39:23;100437.03;;;12.48;55.97
31717;BME280;18301;51.076;17.046;2023-04-28T07:44:25;100428.00;;;12.70;55.42
31717;BME280;18301;51.076;17.046;2023-04-28T07:49:30;100429.13;;;12.67;55.62
31717;BME280;18301;51.076;17.046;2023-04-28T07:54:32;100422.16;;;12.97;54.92
31717;BME280;18301;51.076;17.046;2023-04-28T07:59:37;100414.38;;;13.36;52.65
31717;BME280;18301;51.076;17.046;2023-04-28T08:04:38;100403.69;;;13.76;51.40
31717;BME280;18301;51.076;17.046;2023-04-28T08:09:40;100405.69;;;14.05;49.17
31717;BME280;18301;51.076;17.046;2023-04-28T08:14:44;100410.31;;;14.14;46.29
31717;BME280;18301;51.076;17.046;2023-04-28T08:19:45;100402.81;;;14.07;48.48
31717;BME280;18301;51.076;17.046;2023-04-28T08:24:47;100398.84;;;14.41;48.53
31717;BME280;18301;51.076;17.046;2023-04-28T08:29:49;100398.53;;;14.75;45.64
31717;BME280;18301;51.076;17.046;2023-04-28T08:34:50;100389.94;;;14.70;48.12
31717;BME280;18301;51.076;17.046;2023-04-28T08:39:52;100395.94;;;14.83;46.87
31717;BME280;18301;51.076;17.046;2023-04-28T08:45:03;100369.06;;;14.80;46.42
31717;BME280;18301;51.076;17.046;2023-04-28T08:50:07;100382.81;;;14.79;47.23
31717;BME280;18301;51.076;17.046;2023-04-28T08:55:10;100370.50;;;14.74;45.51
31717;BME280;18301;51.076;17.046;2023-04-28T09:00:13;100379.97;;;15.09;44.12
31717;BME280;18301;51.076;17.046;2023-04-28T09:05:15;100366.81;;;15.24;44.57
31717;BME280;18301;51.076;17.046;2023-04-28T09:10:22;100360.47;;;15.53;43.28
31717;BME280;18301;51.076;17.046;2023-04-28T09:15:37;100356.72;;;15.54;43.63
31717;BME280;18301;51.076;17.046;2023-04-28T09:20:41;100348.72;;;15.62;42.71
31717;BME280;18301;51.076;17.046;2023-04-28T09:25:58;100345.44;;;15.68;44.34
31717;BME280;18301;51.076;17.046;2023-04-28T09:31:00;100336.09;;;15.80;44.54
31717;BME280;18301;51.076;17.046;2023-04-28T09:36:02;100331.25;;;15.74;44.43
31717;BME280;18301;51.076;17.046;2023-04-28T09:41:03;100321.28;;;15.93;42.70
31717;BME280;18301;51.076;17.046;2023-04-28T09:46:05;100309.56;;;16.38;44.98
31717;BME280;18301;51.076;17.046;2023-04-28T09:51:07;100314.94;;;16.29;43.00
31717;BME280;18301;51.076;17.046;2023-04-28T09:56:10;100299.19;;;16.51;43.84
31717;BME280;18301;51.076;17.046;2023-04-28T10:01:12;100300.25;;;16.40;45.94
31717;BME280;18301;51.076;17.046;2023-04-28T10:06:15;100285.41;;;16.70;45.66
31717;BME280;18301;51.076;17.046;2023-04-28T10:11:16;100276.09;;;16.91;44.51
31717;BME280;18301;51.076;17.046;2023-04-28T10:16:18;100266.34;;;16.88;43.90
31717;BME280;18301;51.076;17.046;2023-04-28T10:21:20;100257.69;;;16.93;44.30
31717;BME280;18301;51.076;17.046;2023-04-28T10:26:52;100242.56;;;17.16;43.03
31717;BME280;18301;51.076;17.046;2023-04-28T10:37:17;100235.06;;;17.18;43.60
31717;BME280;18301;51.076;17.046;2023-04-28T10:42:51;100223.19;;;17.28;41.43
31717;BME280;18301;51.076;17.046;2023-04-28T10:47:59;100210.50;;;17.44;41.67
31717;BME280;18301;51.076;17.046;2023-04-28T10:53:05;100207.66;;;17.54;40.97
31717;BME280;18301;51.076;17.046;2023-04-28T11:03:44;100206.47;;;17.57;42.48
31717;BME280;18301;51.076;17.046;2023-04-28T11:08:54;100195.03;;;17.53;41.36
31717;BME280;18301;51.076;17.046;2023-04-28T11:19:18;100199.28;;;17.82;40.64
31717;BME280;18301;51.076;17.046;2023-04-28T11:24:21;100191.13;;;17.90;39.80
31717;BME280;18301;51.076;17.046;2023-04-28T11:29:39;100181.97;;;18.15;40.40
31717;BME280;18301;51.076;17.046;2023-04-28T11:34:41;100181.66;;;18.27;40.09
31717;BME280;18301;51.076;17.046;2023-04-28T11:39:43;100178.53;;;18.05;39.65
31717;BME280;18301;51.076;17.046;2023-04-28T11:44:49;100165.56;;;18.15;39.77
31717;BME280;18301;51.076;17.046;2023-04-28T11:49:54;100154.66;;;18.07;40.06
31717;BME280;18301;51.076;17.046;2023-04-28T11:54:58;100153.59;;;18.00;39.83
31717;BME280;18301;51.076;17.046;2023-04-28T12:00:12;100144.16;;;17.78;40.61
31717;BME280;18301;51.076;17.046;2023-04-28T12:05:15;100148.50;;;18.05;41.14
31717;BME280;18301;51.076;17.046;2023-04-28T12:10:17;100143.38;;;18.18;38.61
31717;BME280;18301;51.076;17.046;2023-04-28T12:15:20;100139.97;;;18.41;37.87
31717;BME280;18301;51.076;17.046;2023-04-28T12:20:33;100125.13;;;18.52;39.26
31717;BME280;18301;51.076;17.046;2023-04-28T12:25:42;100132.47;;;18.84;38.93
31717;BME280;18301;51.076;17.046;2023-04-28T12:30:44;100123.22;;;18.93;36.52
31717;BME280;18301;51.076;17.046;2023-04-28T12:35:46;100116.38;;;19.05;38.86
31717;BME280;18301;51.076;17.046;2023-04-28T12:40:49;100118.38;;;19.28;38.91
31717;BME280;18301;51.076;17.046;2023-04-28T12:45:51;100114.91;;;19.34;36.48
31717;BME280;18301;51.076;17.046;2023-04-28T12:50:56;100105.94;;;19.48;37.84
31717;BME280;18301;51.076;17.046;2023-04-28T12:55:58;100100.34;;;19.42;36.16
31717;BME280;18301;51.076;17.046;2023-04-28T13:01:00;100096.78;;;19.33;36.32
31717;BME280;18301;51.076;17.046;2023-04-28T13:06:02;100086.47;;;19.04;36.72
31717;BME280;18301;51.076;17.046;2023-04-28T13:11:04;100082.13;;;19.18;35.71
31717;BME280;18301;51.076;17.046;2023-04-28T13:16:22;100076.31;;;19.21;35.34
31717;BME280;18301;51.076;17.046;2023-04-28T13:21:29;100076.31;;;19.21;36.32
31717;BME280;18301;51.076;17.046;2023-04-28T13:26:31;100071.25;;;19.01;34.55
31717;BME280;18301;51.076;17.046;2023-04-28T13:31:33;100076.41;;;18.72;36.38
31717;BME280;18301;51.076;17.046;2023-04-28T13:36:34;100072.34;;;18.59;35.49
31717;BME280;18301;51.076;17.046;2023-04-28T13:41:36;100065.34;;;18.65;36.01
31717;BME280;18301;51.076;17.046;2023-04-28T13:46:38;100053.88;;;18.78;36.13
31717;BME280;18301;51.076;17.046;2023-04-28T13:51:39;100050.59;;;18.99;35.66
31717;BME280;18301;51.076;17.046;2023-04-28T13:56:41;100045.00;;;18.84;35.42
31717;BME280;18301;51.076;17.046;2023-04-28T14:01:42;100046.72;;;18.77;36.22
31717;BME280;18301;51.076;17.046;2023-04-28T14:06:44;100035.00;;;18.35;35.95
31717;BME280;18301;51.076;17.046;2023-04-28T14:11:46;100027.31;;;18.39;37.10
31717;BME280;18301;51.076;17.046;2023-04-28T14:16:47;100024.38;;;18.49;37.38
31717;BME280;18301;51.076;17.046;2023-04-28T14:21:49;100021.84;;;18.39;37.03
31717;BME280;18301;51.076;17.046;2023-04-28T14:26:51;100012.31;;;18.27;37.68
31717;BME280;18301;51.076;17.046;2023-04-28T14:31:52;100013.00;;;18.21;38.62
31717;BME280;18301;51.076;17.046;2023-04-28T14:36:54;100011.09;;;18.21;39.03
31717;BME280;18301;51.076;17.046;2023-04-28T14:41:55;100010.91;;;18.39;38.39
31717;BME280;18301;51.076;17.046;2023-04-28T14:46:57;100006.50;;;18.30;38.37
31717;BME280;18301;51.076;17.046;2023-04-28T14:51:59;99996.25;;;18.15;37.91
31717;BME280;18301;51.076;17.046;2023-04-28T14:57:01;99994.03;;;18.35;36.91
31717;BME280;18301;51.076;17.046;2023-04-28T15:02:03;99980.03;;;18.30;38.13
31717;BME280;18301;51.076;17.046;2023-04-28T15:07:05;99973.31;;;18.49;38.45
31717;BME280;18301;51.076;17.046;2023-04-28T15:12:09;99970.22;;;18.60;38.34
31717;BME280;18301;51.076;17.046;2023-04-28T15:17:10;99958.03;;;18.71;37.85
31717;BME280;18301;51.076;17.046;2023-04-28T15:22:12;99957.97;;;18.48;38.73
31717;BME280;18301;51.076;17.046;2023-04-28T15:27:14;99964.13;;;18.34;36.55
31717;BME280;18301;51.076;17.046;2023-04-28T15:32:15;99953.91;;;18.28;37.61
31717;BME280;18301;51.076;17.046;2023-04-28T15:42:37;99956.00;;;17.93;38.51
31717;BME280;18301;51.076;17.046;2023-04-28T15:47:39;99944.06;;;18.02;38.12
31717;BME280;18301;51.076;17.046;2023-04-28T15:52:42;99942.19;;;17.94;37.87
31717;BME280;18301;51.076;17.046;2023-04-28T15:57:47;99940.97;;;18.05;38.51
31717;BME280;18301;51.076;17.046;2023-04-28T16:02:48;99941.69;;;18.07;38.60
31717;BME280;18301;51.076;17.046;2023-04-28T16:07:50;99939.28;;;17.88;37.93
31717;BME280;18301;51.076;17.046;2023-04-28T16:12:52;99939.97;;;17.90;38.13
31717;BME280;18301;51.076;17.046;2023-04-28T16:17:54;99934.50;;;17.74;39.12
31717;BME280;18301;51.076;17.046;2023-04-28T16:22:57;99933.16;;;17.61;38.56
31717;BME280;18301;51.076;17.046;2023-04-28T16:27:58;99932.09;;;17.62;39.36
31717;BME280;18301;51.076;17.046;2023-04-28T16:33:00;99928.84;;;17.51;39.97
31717;BME280;18301;51.076;17.046;2023-04-28T16:38:01;99920.16;;;17.39;40.72
31717;BME280;18301;51.076;17.046;2023-04-28T16:43:03;99917.44;;;17.47;40.37
31717;BME280;18301;51.076;17.046;2023-04-28T16:48:04;99910.94;;;17.32;40.27
31717;BME280;18301;51.076;17.046;2023-04-28T16:53:06;99915.38;;;17.24;40.41
31717;BME280;18301;51.076;17.046;2023-04-28T16:58:08;99909.53;;;17.03;41.08
31717;BME280;18301;51.076;17.046;2023-04-28T17:03:09;99913.28;;;17.02;41.25
31717;BME280;18301;51.076;17.046;2023-04-28T17:08:12;99908.88;;;17.09;41.22
31717;BME280;18301;51.076;17.046;2023-04-28T17:13:14;99904.44;;;17.00;42.27
31717;BME280;18301;51.076;17.046;2023-04-28T17:18:15;99906.09;;;16.85;42.70
31717;BME280;18301;51.076;17.046;2023-04-28T17:23:17;99906.19;;;16.75;42.80
31717;BME280;18301;51.076;17.046;2023-04-28T17:28:19;99908.38;;;16.63;43.97
31717;BME280;18301;51.076;17.046;2023-04-28T17:33:20;99897.31;;;16.30;45.38
31717;BME280;18301;51.076;17.046;2023-04-28T17:38:22;99903.91;;;16.20;45.31
31717;BME280;18301;51.076;17.046;2023-04-28T17:43:24;99893.09;;;16.02;46.49
31717;BME280;18301;51.076;17.046;2023-04-28T17:48:25;99897.44;;;15.95;46.35
31717;BME280;18301;51.076;17.046;2023-04-28T17:53:27;99892.06;;;15.77;46.88
31717;BME280;18301;51.076;17.046;2023-04-28T17:58:28;99887.88;;;15.64;47.01
31717;BME280;18301;51.076;17.046;2023-04-28T18:03:34;99901.63;;;15.45;48.00
31717;BME280;18301;51.076;17.046;2023-04-28T18:08:35;99892.25;;;15.39;47.08
31717;BME280;18301;51.076;17.046;2023-04-28T18:13:37;99901.03;;;15.33;47.83
31717;BME280;18301;51.076;17.046;2023-04-28T18:18:39;99902.97;;;15.23;47.86
31717;BME280;18301;51.076;17.046;2023-04-28T18:23:40;99901.03;;;15.15;47.55
31717;BME280;18301;51.076;17.046;2023-04-28T18:28:45;99903.44;;;15.01;49.10
31717;BME280;18301;51.076;17.046;2023-04-28T18:33:48;99909.78;;;14.91;48.79
31717;BME280;18301;51.076;17.046;2023-04-28T18:38:49;99906.66;;;14.86;49.26
31717;BME280;18301;51.076;17.046;2023-04-28T18:43:51;99905.88;;;14.76;48.71
31717;BME280;18301;51.076;17.046;2023-04-28T18:48:52;99915.38;;;14.62;50.16
31717;BME280;18301;51.076;17.046;2023-04-28T18:53:54;99915.13;;;14.56;49.50
31717;BME280;18301;51.076;17.046;2023-04-28T18:58:56;99915.84;;;14.58;50.54
31717;BME280;18301;51.076;17.046;2023-04-28T19:03:57;99907.69;;;14.58;49.61
31717;BME280;18301;51.076;17.046;2023-04-28T19:08:59;99900.41;;;14.58;50.64
31717;BME280;18301;51.076;17.046;2023-04-28T19:14:01;99904.81;;;14.59;50.08
31717;BME280;18301;51.076;17.046;2023-04-28T19:19:03;99895.53;;;14.62;50.95
31717;BME280;18301;51.076;17.046;2023-04-28T19:24:04;99894.84;;;14.60;50.82
31717;BME280;18301;51.076;17.046;2023-04-28T19:29:06;99896.13;;;14.56;51.01
31717;BME280;18301;51.076;17.046;2023-04-28T19:34:08;99897.94;;;14.65;51.25
31717;BME280;18301;51.076;17.046;2023-04-28T19:39:09;99899.84;;;14.55;51.80
31717;BME280;18301;51.076;17.046;2023-04-28T19:44:11;99898.00;;;14.55;51.78
31717;BME280;18301;51.076;17.046;2023-04-28T19:49:12;99901.75;;;14.44;52.27
31717;BME280;18301;51.076;17.046;2023-04-28T19:54:14;99898.00;;;14.45;52.65
31717;BME280;18301;51.076;17.046;2023-04-28T19:59:17;99903.03;;;14.40;52.71
31717;BME280;18301;51.076;17.046;2023-04-28T20:04:18;99901.63;;;14.36;52.96
31717;BME280;18301;51.076;17.046;2023-04-28T20:09:20;99906.94;;;14.28;53.70
31717;BME280;18301;51.076;17.046;2023-04-28T20:14:21;99911.56;;;14.18;53.89
31717;BME280;18301;51.076;17.046;2023-04-28T20:19:23;99906.16;;;14.08;54.20
31717;BME280;18301;51.076;17.046;2023-04-28T20:24:25;99901.66;;;13.89;55.90
31717;BME280;18301;51.076;17.046;2023-04-28T20:29:27;99908.84;;;13.71;56.12
31717;BME280;18301;51.076;17.046;2023-04-28T20:34:35;99913.13;;;13.54;57.12
31717;BME280;18301;51.076;17.046;2023-04-28T20:39:36;99908.72;;;13.43;58.05
31717;BME280;18301;51.076;17.046;2023-04-28T20:44:38;99906.00;;;13.43;57.46
31717;BME280;18301;51.076;17.046;2023-04-28T20:49:41;99897.16;;;13.41;57.14
31717;BME280;18301;51.076;17.046;2023-04-28T20:54:42;99890.16;;;13.48;57.80
31717;BME280;18301;51.076;17.046;2023-04-28T20:59:44;99887.03;;;13.53;57.47
31717;BME280;18301;51.076;17.046;2023-04-28T21:04:46;99877.47;;;13.58;57.38
31717;BME280;18301;51.076;17.046;2023-04-28T21:09:47;99877.47;;;13.58;58.57
31717;BME280;18301;51.076;17.046;2023-04-28T21:14:49;99881.03;;;13.49;58.99
31717;BME280;18301;51.076;17.046;2023-04-28T21:19:53;99872.63;;;13.43;59.47
31717;BME280;18301;51.076;17.046;2023-04-28T21:24:55;99876.31;;;13.42;60.29
31717;BME280;18301;51.076;17.046;2023-04-28T21:29:57;99872.78;;;13.41;60.10
31717;BME280;18301;51.076;17.046;2023-04-28T21:34:59;99871.91;;;13.50;61.49
31717;BME280;18301;51.076;17.046;2023-04-28T21:40:00;99872.31;;;13.55;60.10
31717;BME280;18301;51.076;17.046;2023-04-28T21:45:03;99866.63;;;13.58;60.24
31717;BME280;18301;51.076;17.046;2023-04-28T21:50:05;99867.19;;;13.52;60.21
31717;BME280;18301;51.076;17.046;2023-04-28T21:55:07;99870.19;;;13.49;60.94
31717;BME280;18301;51.076;17.046;2023-04-28T22:00:10;99868.47;;;13.48;60.63
31717;BME280;18301;51.076;17.046;2023-04-28T22:05:12;99871.78;;;13.32;62.06
31717;BME280;18301;51.076;17.046;2023-04-28T22:10:14;99863.81;;;13.31;62.65
31717;BME280;18301;51.076;17.046;2023-04-28T22:15:17;99860.34;;;13.39;61.82
31717;BME280;18301;51.076;17.046;2023-04-28T22:20:19;99860.91;;;13.42;61.04
31717;BME280;18301;51.076;17.046;2023-04-28T22:25:20;99851.50;;;13.46;61.28
31717;BME280;18301;51.076;17.046;2023-04-28T22:30:22;99846.50;;;13.42;62.08
31717;BME280;18301;51.076;17.046;2023-04-28T22:35:26;99845.38;;;13.44;61.69
31717;BME280;18301;51.076;17.046;2023-04-28T22:40:28;99841.09;;;13.42;61.87
31717;BME280;18301;51.076;17.046;2023-04-28T22:45:29;99844.09;;;13.39;61.89
31717;BME280;18301;51.076;17.046;2023-04-28T22:50:31;99836.16;;;13.27;63.00
31717;BME280;18301;51.076;17.046;2023-04-28T22:55:32;99836.69;;;13.31;62.96
31717;BME280;18301;51.076;17.046;2023-04-28T23:00:34;99833.81;;;13.23;63.86
31717;BME280;18301;51.076;17.046;2023-04-28T23:05:36;99833.56;;;13.26;63.34
31717;BME280;18301;51.076;17.046;2023-04-28T23:10:38;99826.16;;;13.28;63.27
31717;BME280;18301;51.076;17.046;2023-04-28T23:15:40;99828.41;;;13.32;64.25
31717;BME280;18301;51.076;17.046;2023-04-28T23:20:41;99832.13;;;13.41;63.92
31717;BME280;18301;51.076;17.046;2023-04-28T23:25:43;99827.53;;;13.42;63.55
31717;BME280;18301;51.076;17.046;2023-04-28T23:30:44;99827.25;;;13.45;63.51
31717;BME280;18301;51.076;17.046;2023-04-28T23:35:46;99820.97;;;13.44;63.57
31717;BME280;18301;51.076;17.046;2023-04-28T23:40:47;99822.16;;;13.32;65.04
31717;BME280;18301;51.076;17.046;2023-04-28T23:45:49;99804.19;;;13.31;64.17
31717;BME280;18301;51.076;17.046;2023-04-28T23:50:50;99801.88;;;13.17;65.88
31717;BME280;18301;51.076;17.046;2023-04-28T23:55:52;99783.66;;;12.99;65.14
